高雄終端管制區 - 高雄雷達席

METAR RCKH 262330Z 04004KT 360V080 1600 BR FEW008 SCT012 21/19 Q1012 TEMPO 3000 BR RMK A2990=

站台狀態:Online
最後更新:2021-02-27 07:30:02